MSC Celine — 3FID6 — position and weather

sailwx.info

Track history (hours):
 
Tides and Currents Weather Stations Pressure Air Temp Water Temp Dewpoint Dewpoint Depression Visibility Wind Speed Wind Dir Waves Ship Positions

MSC Celine

Last reported at 2018-Jan-20 00:48 UTC. Time now 2018-Jan-20 01:37 UTC.
Position N 38°28' E 015°54'.

Length 210 m; draft 11 m.

Type: Ship (hazmat cat A). MMSI: 373582000.

Date/timePositionNaut miles runAvg speedWind from/ knotsBaromVisibWave heightAir tempDewpointWater temp
2018-Jan-20 00:48N 38°28' E 015°54'0 0.0
2018-Jan-20 00:30N 38°28' E 015°54'0 0.0
2018-Jan-19 23:54N 38°28' E 015°54'0 0.0
2018-Jan-19 17:42N 38°28' E 015°54'0 0.0
2018-Jan-19 17:30N 38°28' E 015°54'0 0.0
2018-Jan-19 16:42N 38°28' E 015°54'0 0.0
2018-Jan-19 16:30N 38°28' E 015°54'0 0.0
2018-Jan-19 16:00N 38°28' E 015°54'0 0.0
2018-Jan-19 15:30N 38°28' E 015°54'0 0.0
2018-Jan-19 15:00N 38°28' E 015°54'0 0.0
2018-Jan-19 12:48N 38°28' E 015°54'0 0.0
2018-Jan-19 08:48N 38°28' E 015°54'1 2.8
2018-Jan-19 08:29N 38°27' E 015°54'3 5.3
2018-Jan-19 08:00N 38°27' E 015°51'610.1
2018-Jan-19 07:27N 38°29' E 015°44'1 0.8
2018-Jan-19 06:43N 38°29' E 015°44'0 0.6
2018-Jan-19 06:30N 38°29' E 015°44'17 7.5
2018-Jan-19 04:16N 38°13' E 015°37'416.9
2018-Jan-19 04:00N 38°09' E 015°37'4 7.1
2018-Jan-19 03:29N 38°05' E 015°36'3 5.5
2018-Jan-19 02:59N 38°03' E 015°36'4 8.4
2018-Jan-19 02:30N 37°58' E 015°36'8 9.1
2018-Jan-19 01:36N 37°52' E 015°41'2 7.6
2018-Jan-19 01:23N 37°51' E 015°43'3 8.4
2018-Jan-19 01:00N 37°50' E 015°47'611.2
2018-Jan-19 00:29N 37°48' E 015°54'511.1
2018-Jan-19 00:00N 37°45' E 015°60'811.3
2018-Jan-18 23:19N 37°42' E 016°09'411.3
2018-Jan-18 23:00N 37°41' E 016°13'  
2018-Jan-10 07:04N 44°21' E 037°11'219.1
2018-Jan-10 06:58N 44°22' E 037°13'714.5
2018-Jan-10 06:30N 44°25' E 037°22'611.7
2018-Jan-10 06:00N 44°27' E 037°29'611.4
2018-Jan-10 05:31N 44°30' E 037°36'611.7
2018-Jan-10 05:01N 44°33' E 037°43'611.8
2018-Jan-10 04:31N 44°37' E 037°49'4 8.3
2018-Jan-10 04:00N 44°41' E 037°49'3 5.5
2018-Jan-10 03:30N 44°43' E 037°47'0 0.5
2018-Jan-10 03:00N 44°44' E 037°47'0 0.0
2018-Jan-10 02:29N 44°44' E 037°47'0 0.0
2018-Jan-10 02:00N 44°44' E 037°47'0 0.0
2018-Jan-10 01:23N 44°44' E 037°47'0 0.0
2018-Jan-10 01:00N 44°44' E 037°47'  
Track history (hours):
 
Tides and Currents Weather Stations Pressure Air Temp Water Temp Dewpoint Dewpoint Depression Visibility Wind Speed Wind Dir Waves Ship Positions

MSC Celine

Last reported at 2018-Jan-20 00:48 UTC. Time now 2018-Jan-20 01:37 UTC.
Position N 38°28' E 015°54'.

Length 210 m; draft 11 m.

Type: Ship (hazmat cat A). MMSI: 373582000.

Date/timePositionNaut miles runAvg speedWind from/ knotsBaromVisibWave heightAir tempDewpointWater temp
2018-Jan-20 00:48N 38°28' E 015°54'0 0.0
2018-Jan-20 00:30N 38°28' E 015°54'0 0.0
2018-Jan-19 23:54N 38°28' E 015°54'0 0.0
2018-Jan-19 17:42N 38°28' E 015°54'0 0.0
2018-Jan-19 17:30N 38°28' E 015°54'0 0.0
2018-Jan-19 16:42N 38°28' E 015°54'0 0.0
2018-Jan-19 16:30N 38°28' E 015°54'0 0.0
2018-Jan-19 16:00N 38°28' E 015°54'0 0.0
2018-Jan-19 15:30N 38°28' E 015°54'0 0.0
2018-Jan-19 15:00N 38°28' E 015°54'0 0.0
2018-Jan-19 12:48N 38°28' E 015°54'0 0.0
2018-Jan-19 08:48N 38°28' E 015°54'1 2.8
2018-Jan-19 08:29N 38°27' E 015°54'3 5.3
2018-Jan-19 08:00N 38°27' E 015°51'610.1
2018-Jan-19 07:27N 38°29' E 015°44'1 0.8
2018-Jan-19 06:43N 38°29' E 015°44'0 0.6
2018-Jan-19 06:30N 38°29' E 015°44'17 7.5
2018-Jan-19 04:16N 38°13' E 015°37'416.9
2018-Jan-19 04:00N 38°09' E 015°37'4 7.1
2018-Jan-19 03:29N 38°05' E 015°36'3 5.5
2018-Jan-19 02:59N 38°03' E 015°36'4 8.4
2018-Jan-19 02:30N 37°58' E 015°36'8 9.1
2018-Jan-19 01:36N 37°52' E 015°41'2 7.6
2018-Jan-19 01:23N 37°51' E 015°43'3 8.4
2018-Jan-19 01:00N 37°50' E 015°47'611.2
2018-Jan-19 00:29N 37°48' E 015°54'511.1
2018-Jan-19 00:00N 37°45' E 015°60'811.3
2018-Jan-18 23:19N 37°42' E 016°09'411.3
2018-Jan-18 23:00N 37°41' E 016°13'  
2018-Jan-10 07:04N 44°21' E 037°11'219.1
2018-Jan-10 06:58N 44°22' E 037°13'714.5
2018-Jan-10 06:30N 44°25' E 037°22'611.7
2018-Jan-10 06:00N 44°27' E 037°29'611.4
2018-Jan-10 05:31N 44°30' E 037°36'611.7
2018-Jan-10 05:01N 44°33' E 037°43'611.8
2018-Jan-10 04:31N 44°37' E 037°49'4 8.3
2018-Jan-10 04:00N 44°41' E 037°49'3 5.5
2018-Jan-10 03:30N 44°43' E 037°47'0 0.5
2018-Jan-10 03:00N 44°44' E 037°47'0 0.0
2018-Jan-10 02:29N 44°44' E 037°47'0 0.0
2018-Jan-10 02:00N 44°44' E 037°47'0 0.0
2018-Jan-10 01:23N 44°44' E 037°47'0 0.0
2018-Jan-10 01:00N 44°44' E 037°47'  

Dump ship's entire track history